Time;durP1;ratioP1;P1;durP2;ratioP2;P2;SDS_P1;SDS_P2;PMS_P1;PMS_P2;Temp;Humidity;BMP_temperature;BMP_pressure;BME280_temperature;BME280_humidity;BME280_pressure;Samples;Min_cycle;Max_cycle;Signal;HPM_P1;HPM_P2
2022/10/14 00:01:45;;;;;;;55.55;8.13;;;;;;;;;;4977014;28;20486;-64
2022/10/14 00:04:11;;;;;;;44.97;7.90;;;;;;;;;;4982150;28;20081;-64
2022/10/14 00:06:37;;;;;;;46.97;8.45;;;;;;;;;;4978240;28;20042;-64
2022/10/14 00:09:05;;;;;;;25.33;8.55;;;;;;;;;;4977510;28;20054;-64
2022/10/14 00:11:32;;;;;;;23.08;8.98;;;;;;;;;;4979235;28;20054;-64
2022/10/14 00:14:00;;;;;;;42.28;8.77;;;;;;;;;;4979210;28;20172;-64
2022/10/14 00:16:28;;;;;;;41.47;7.80;;;;;;;;;;4978660;28;20470;-64
2022/10/14 00:18:55;;;;;;;92.10;10.52;;;;;;;;;;4976730;28;20514;-64
2022/10/14 00:21:21;;;;;;;72.72;9.90;;;;;;;;;;4977039;28;20037;-64
2022/10/14 00:23:47;;;;;;;69.15;10.30;;;;;;;;;;4978489;28;20046;-64
2022/10/14 00:26:22;;;;;;;66.57;10.30;;;;;;;;;;4980452;28;20038;-64
2022/10/14 00:28:48;;;;;;;96.20;10.85;;;;;;;;;;4977360;28;20042;-64
2022/10/14 00:31:15;;;;;;;102.47;10.48;;;;;;;;;;4977507;28;20061;-64
2022/10/14 00:33:41;;;;;;;73.90;9.85;;;;;;;;;;4974504;28;20077;-64
2022/10/14 00:36:07;;;;;;;60.58;10.13;;;;;;;;;;4979794;28;20141;-64
2022/10/14 00:38:34;;;;;;;94.25;10.13;;;;;;;;;;4978541;28;20088;-64
2022/10/14 00:41:00;;;;;;;96.00;9.98;;;;;;;;;;4978761;28;20744;-64
2022/10/14 00:43:28;;;;;;;99.47;10.20;;;;;;;;;;4980858;28;20060;-64
2022/10/14 00:45:54;;;;;;;104.13;11.07;;;;;;;;;;4983334;28;20173;-64
2022/10/14 00:48:22;;;;;;;108.72;10.73;;;;;;;;;;4981880;28;20088;-64
2022/10/14 00:50:50;;;;;;;130.90;11.70;;;;;;;;;;4979631;28;20478;-64
2022/10/14 00:53:17;;;;;;;88.25;10.40;;;;;;;;;;4976067;28;20049;-63
2022/10/14 00:55:43;;;;;;;84.78;10.73;;;;;;;;;;4979360;28;20117;-64
2022/10/14 00:58:10;;;;;;;105.80;13.63;;;;;;;;;;4976909;28;20054;-64
2022/10/14 01:00:36;;;;;;;98.05;11.85;;;;;;;;;;4979172;28;20560;-64
2022/10/14 01:03:08;;;;;;;128.32;12.55;;;;;;;;;;4976135;28;20111;-64
2022/10/14 01:05:39;;;;;;;118.07;15.05;;;;;;;;;;4977690;28;20046;-64
2022/10/14 01:08:08;;;;;;;169.18;13.82;;;;;;;;;;4975292;28;20410;-64
2022/10/14 01:10:41;;;;;;;161.80;14.35;;;;;;;;;;4975731;28;20133;-64
2022/10/14 01:13:13;;;;;;;121.87;12.80;;;;;;;;;;4978905;28;20112;-64
2022/10/14 01:15:39;;;;;;;135.13;13.70;;;;;;;;;;4980101;28;21635;-64
2022/10/14 01:18:23;;;;;;;147.27;14.73;;;;;;;;;;4981825;28;20196;-64
2022/10/14 01:20:53;;;;;;;181.10;15.63;;;;;;;;;;4979141;28;20069;-64
2022/10/14 01:23:34;;;;;;;154.38;15.88;;;;;;;;;;4976398;28;20050;-64
2022/10/14 01:26:13;;;;;;;138.02;14.52;;;;;;;;;;4979369;28;20153;-64
2022/10/14 01:28:40;;;;;;;137.38;14.60;;;;;;;;;;4977024;28;20066;-64
2022/10/14 01:31:09;;;;;;;186.38;18.08;;;;;;;;;;4977384;28;20054;-64
2022/10/14 01:33:37;;;;;;;135.98;15.70;;;;;;;;;;4973782;28;20046;-64
2022/10/14 01:36:04;;;;;;;130.98;16.52;;;;;;;;;;4974774;28;20054;-64
2022/10/14 01:38:34;;;;;;;233.88;22.02;;;;;;;;;;4977312;28;20042;-64
2022/10/14 01:41:06;;;;;;;176.63;17.75;;;;;;;;;;4976736;28;20042;-64
2022/10/14 01:43:33;;;;;;;163.95;16.00;;;;;;;;;;4974511;28;20077;-64
2022/10/14 01:46:00;;;;;;;211.38;18.40;;;;;;;;;;4982889;28;20552;-64
2022/10/14 01:48:29;;;;;;;171.02;16.58;;;;;;;;;;4981311;28;20042;-64
2022/10/14 01:50:57;;;;;;;132.02;16.48;;;;;;;;;;4978477;28;20111;-64
2022/10/14 01:53:25;;;;;;;101.72;14.27;;;;;;;;;;4979791;28;20062;-64
2022/10/14 01:55:53;;;;;;;86.93;11.90;;;;;;;;;;4980685;28;20046;-64
2022/10/14 01:58:21;;;;;;;161.75;14.95;;;;;;;;;;4977896;28;20390;-64
2022/10/14 02:00:47;;;;;;;180.73;16.50;;;;;;;;;;4977055;28;20050;-64
2022/10/14 02:03:13;;;;;;;147.13;16.70;;;;;;;;;;4978913;28;20077;-64
2022/10/14 02:05:50;;;;;;;182.55;19.42;;;;;;;;;;4976205;28;20385;-64
2022/10/14 02:08:25;;;;;;;258.30;19.95;;;;;;;;;;4978736;28;20046;-64
2022/10/14 02:11:02;;;;;;;173.05;17.15;;;;;;;;;;4977509;28;20054;-64
2022/10/14 02:13:38;;;;;;;235.55;18.98;;;;;;;;;;4978603;28;20635;-64
2022/10/14 02:16:12;;;;;;;258.50;18.27;;;;;;;;;;4978044;28;20478;-64
2022/10/14 02:18:40;;;;;;;213.95;16.85;;;;;;;;;;4979675;28;20517;-64
2022/10/14 02:21:25;;;;;;;214.60;15.60;;;;;;;;;;4979487;28;20046;-64
2022/10/14 02:23:56;;;;;;;165.73;16.52;;;;;;;;;;4977303;28;20173;-64
2022/10/14 02:26:22;;;;;;;216.70;18.10;;;;;;;;;;4977790;28;20089;-64
2022/10/14 02:28:49;;;;;;;164.32;14.98;;;;;;;;;;4979384;28;20061;-64
2022/10/14 02:31:17;;;;;;;139.93;15.65;;;;;;;;;;4976825;28;21671;-64
2022/10/14 02:33:47;;;;;;;173.52;15.98;;;;;;;;;;4974597;28;20077;-64
2022/10/14 02:36:16;;;;;;;154.80;14.10;;;;;;;;;;4976430;28;20409;-64
2022/10/14 02:38:42;;;;;;;236.18;19.40;;;;;;;;;;4976565;28;20513;-64
2022/10/14 02:41:11;;;;;;;182.88;17.75;;;;;;;;;;4974254;28;20050;-64
2022/10/14 02:43:37;;;;;;;152.57;15.88;;;;;;;;;;4963014;28;20035;-64
2022/10/14 02:46:04;;;;;;;153.45;17.23;;;;;;;;;;4980588;28;20050;-64
2022/10/14 02:48:30;;;;;;;126.90;16.30;;;;;;;;;;4984571;28;20513;-64
2022/10/14 02:50:56;;;;;;;166.30;19.55;;;;;;;;;;4984183;28;20112;-64
2022/10/14 02:53:22;;;;;;;190.50;20.08;;;;;;;;;;4981602;28;20046;-64
2022/10/14 02:55:48;;;;;;;191.90;19.38;;;;;;;;;;4983685;28;20516;-64
2022/10/14 02:58:15;;;;;;;216.68;18.85;;;;;;;;;;4984068;28;20398;-64
2022/10/14 03:00:41;;;;;;;218.25;21.20;;;;;;;;;;4980441;28;20100;-64
2022/10/14 03:03:07;;;;;;;238.90;18.88;;;;;;;;;;4979940;28;20042;-64
2022/10/14 03:05:33;;;;;;;266.20;23.42;;;;;;;;;;4985194;28;20046;-64
2022/10/14 03:08:00;;;;;;;276.83;24.40;;;;;;;;;;4979800;28;20060;-64
2022/10/14 03:10:26;;;;;;;322.20;27.65;;;;;;;;;;4970110;28;20059;-64
2022/10/14 03:12:52;;;;;;;174.93;20.13;;;;;;;;;;4946505;28;20054;-64
2022/10/14 03:15:18;;;;;;;153.30;22.27;;;;;;;;;;4962151;28;20034;-64
2022/10/14 03:17:45;;;;;;;150.70;20.40;;;;;;;;;;4963663;28;20573;-64
2022/10/14 03:20:11;;;;;;;220.20;26.15;;;;;;;;;;4962937;28;20111;-64
2022/10/14 03:22:37;;;;;;;122.72;21.42;;;;;;;;;;4962440;28;20387;-64
2022/10/14 03:25:04;;;;;;;138.32;21.92;;;;;;;;;;4949789;28;20167;-64
2022/10/14 03:27:30;;;;;;;302.92;29.30;;;;;;;;;;4962346;28;20074;-64
2022/10/14 03:29:56;;;;;;;201.27;23.20;;;;;;;;;;4963213;28;20442;-64
2022/10/14 03:32:22;;;;;;;170.02;23.27;;;;;;;;;;4964081;28;20038;-64
2022/10/14 03:34:48;;;;;;;188.40;22.58;;;;;;;;;;4960690;28;20101;-64
2022/10/14 03:37:14;;;;;;;148.48;19.13;;;;;;;;;;4950760;28;20054;-64
2022/10/14 03:39:40;;;;;;;200.20;21.67;;;;;;;;;;4943535;28;20057;-64
2022/10/14 03:42:06;;;;;;;123.57;18.58;;;;;;;;;;4958975;28;20050;-64
2022/10/14 03:44:33;;;;;;;122.97;18.65;;;;;;;;;;4963670;28;20133;-63
2022/10/14 03:46:59;;;;;;;242.60;18.65;;;;;;;;;;4944448;28;20047;-64
2022/10/14 03:49:25;;;;;;;192.07;17.58;;;;;;;;;;4947332;28;20069;-64
2022/10/14 03:51:51;;;;;;;125.10;17.00;;;;;;;;;;4947036;28;20074;-64
2022/10/14 03:54:17;;;;;;;204.27;18.92;;;;;;;;;;4947727;28;20047;-64
2022/10/14 03:56:43;;;;;;;172.35;18.10;;;;;;;;;;4963506;28;20398;-64
2022/10/14 03:59:09;;;;;;;203.10;20.30;;;;;;;;;;4964421;28;20930;-64
2022/10/14 04:01:35;;;;;;;199.63;20.70;;;;;;;;;;4963964;28;20605;-64
2022/10/14 04:04:02;;;;;;;222.23;22.38;;;;;;;;;;4962190;28;20046;-64
2022/10/14 04:06:29;;;;;;;246.68;23.60;;;;;;;;;;4960130;28;20062;-64
2022/10/14 04:08:56;;;;;;;273.42;24.77;;;;;;;;;;4960415;28;20049;-64
2022/10/14 04:11:22;;;;;;;235.32;25.85;;;;;;;;;;4978501;28;20065;-64
2022/10/14 04:13:48;;;;;;;315.27;28.27;;;;;;;;;;4967702;28;20670;-64
2022/10/14 04:16:14;;;;;;;273.60;26.45;;;;;;;;;;4982961;28;21269;-64
2022/10/14 04:18:40;;;;;;;210.88;23.17;;;;;;;;;;4985268;28;20034;-64
2022/10/14 04:21:07;;;;;;;286.25;27.45;;;;;;;;;;4986241;28;20169;-64
2022/10/14 04:23:34;;;;;;;230.02;25.15;;;;;;;;;;4966566;28;20046;-64
2022/10/14 04:26:04;;;;;;;243.02;25.05;;;;;;;;;;4963783;28;20047;-64
2022/10/14 04:28:30;;;;;;;276.67;26.80;;;;;;;;;;4963002;28;20053;-64
2022/10/14 04:30:57;;;;;;;337.27;28.73;;;;;;;;;;4982712;28;20042;-64
2022/10/14 04:33:23;;;;;;;295.60;27.38;;;;;;;;;;4982437;28;20508;-63
2022/10/14 04:35:50;;;;;;;365.58;32.45;;;;;;;;;;4984577;28;20054;-64
2022/10/14 04:38:16;;;;;;;363.83;30.75;;;;;;;;;;4985208;28;20039;-64
2022/10/14 04:40:44;;;;;;;373.17;30.50;;;;;;;;;;4964904;28;20561;-64
2022/10/14 04:43:11;;;;;;;461.00;34.42;;;;;;;;;;4964308;28;20085;-64
2022/10/14 04:45:37;;;;;;;351.55;27.02;;;;;;;;;;4982276;28;20128;-64
2022/10/14 04:48:03;;;;;;;389.80;26.55;;;;;;;;;;4964092;28;20149;-64
2022/10/14 04:50:29;;;;;;;391.20;27.88;;;;;;;;;;4981621;28;20054;-64
2022/10/14 04:52:55;;;;;;;326.27;26.63;;;;;;;;;;4964441;28;20364;-64
2022/10/14 04:55:21;;;;;;;410.45;29.05;;;;;;;;;;4978440;28;20038;-64
2022/10/14 04:57:47;;;;;;;380.67;28.50;;;;;;;;;;4963568;28;20054;-63
2022/10/14 05:00:14;;;;;;;405.50;30.02;;;;;;;;;;4982537;28;20050;-64
2022/10/14 05:02:40;;;;;;;357.10;28.30;;;;;;;;;;4981333;28;20046;-64
2022/10/14 05:05:07;;;;;;;312.20;24.50;;;;;;;;;;4964984;28;20050;-64
2022/10/14 05:07:33;;;;;;;347.63;25.08;;;;;;;;;;4978407;28;20478;-64
2022/10/14 05:10:00;;;;;;;310.48;25.67;;;;;;;;;;4960851;28;20119;-64
2022/10/14 05:12:27;;;;;;;325.90;27.30;;;;;;;;;;4976745;28;20495;-64
2022/10/14 05:14:53;;;;;;;377.65;29.23;;;;;;;;;;4976356;28;20041;-63
2022/10/14 05:17:20;;;;;;;322.67;24.88;;;;;;;;;;4979341;28;20054;-64
2022/10/14 05:19:46;;;;;;;352.88;27.42;;;;;;;;;;4977725;28;20188;-64
2022/10/14 05:22:12;;;;;;;341.33;28.70;;;;;;;;;;4977152;28;20929;-64
2022/10/14 05:24:38;;;;;;;329.77;28.75;;;;;;;;;;4979297;28;20490;-63
2022/10/14 05:27:04;;;;;;;333.85;29.90;;;;;;;;;;4978806;28;20054;-64
2022/10/14 05:29:31;;;;;;;437.70;36.33;;;;;;;;;;4980197;28;20437;-64
2022/10/14 05:31:57;;;;;;;483.27;39.25;;;;;;;;;;4979208;28;20566;-64
2022/10/14 05:34:23;;;;;;;495.55;38.92;;;;;;;;;;4979211;28;20067;-64
2022/10/14 05:36:49;;;;;;;429.05;35.80;;;;;;;;;;4978845;28;20048;-64
2022/10/14 05:39:15;;;;;;;461.90;39.97;;;;;;;;;;4981911;28;20091;-64
2022/10/14 05:41:41;;;;;;;492.48;39.47;;;;;;;;;;4976410;28;20124;-64
2022/10/14 05:44:11;;;;;;;465.67;39.58;;;;;;;;;;4977908;28;20042;-64
2022/10/14 05:46:37;;;;;;;371.88;33.70;;;;;;;;;;4978845;28;20597;-64
2022/10/14 05:49:04;;;;;;;426.25;36.13;;;;;;;;;;4981470;28;20494;-64
2022/10/14 05:51:32;;;;;;;394.58;33.03;;;;;;;;;;4981559;28;20051;-64
2022/10/14 05:53:59;;;;;;;289.13;25.23;;;;;;;;;;4979084;28;20401;-64
2022/10/14 05:56:25;;;;;;;294.73;24.45;;;;;;;;;;4978876;28;20058;-64
2022/10/14 05:58:51;;;;;;;261.42;23.42;;;;;;;;;;4978740;28;20429;-63
2022/10/14 06:01:17;;;;;;;314.95;26.55;;;;;;;;;;4975638;28;20363;-64
2022/10/14 06:03:43;;;;;;;217.18;22.23;;;;;;;;;;4981347;28;20347;-64
2022/10/14 06:06:12;;;;;;;346.17;24.50;;;;;;;;;;4980783;28;20458;-64
2022/10/14 06:08:39;;;;;;;284.98;24.92;;;;;;;;;;4978923;28;20050;-64
2022/10/14 06:11:06;;;;;;;275.50;25.45;;;;;;;;;;4967378;28;20916;-64
2022/10/14 06:13:33;;;;;;;328.83;27.73;;;;;;;;;;4958402;28;20081;-63
2022/10/14 06:16:04;;;;;;;260.52;25.83;;;;;;;;;;4964690;28;20499;-63
2022/10/14 06:18:30;;;;;;;326.63;27.52;;;;;;;;;;4961285;28;20133;-64
2022/10/14 06:20:57;;;;;;;297.40;29.05;;;;;;;;;;4961780;28;20073;-63
2022/10/14 06:23:23;;;;;;;368.15;30.63;;;;;;;;;;4939737;28;20186;-63
2022/10/14 06:25:49;;;;;;;314.80;28.60;;;;;;;;;;4945331;28;20038;-64
2022/10/14 06:28:15;;;;;;;317.95;29.35;;;;;;;;;;4947032;28;20042;-63
2022/10/14 06:30:41;;;;;;;327.75;28.92;;;;;;;;;;4964164;28;20125;-64
2022/10/14 06:33:08;;;;;;;259.00;27.38;;;;;;;;;;4967016;28;20046;-63
2022/10/14 06:35:34;;;;;;;354.38;32.47;;;;;;;;;;4965162;28;20106;-63
2022/10/14 06:38:00;;;;;;;318.45;29.50;;;;;;;;;;4960569;28;20483;-64
2022/10/14 06:40:26;;;;;;;354.10;32.53;;;;;;;;;;4953893;28;20510;-66
2022/10/14 06:42:52;;;;;;;352.27;34.95;;;;;;;;;;4955026;28;20042;-63
2022/10/14 06:45:18;;;;;;;404.98;35.97;;;;;;;;;;4959283;28;20458;-64
2022/10/14 06:47:44;;;;;;;369.38;36.92;;;;;;;;;;4961592;28;20644;-64
2022/10/14 06:50:12;;;;;;;329.17;33.08;;;;;;;;;;4960357;28;20049;-64
2022/10/14 06:52:38;;;;;;;397.90;38.65;;;;;;;;;;4938210;28;20137;-63
2022/10/14 06:55:04;;;;;;;203.98;30.95;;;;;;;;;;4961101;28;20102;-64
2022/10/14 06:57:30;;;;;;;230.80;32.35;;;;;;;;;;4960154;28;20047;-63
2022/10/14 06:59:56;;;;;;;200.80;34.05;;;;;;;;;;4961235;28;20155;-63
2022/10/14 07:02:22;;;;;;;211.00;37.60;;;;;;;;;;4960552;28;20043;-63
2022/10/14 07:04:49;;;;;;;207.77;38.42;;;;;;;;;;4960653;28;20047;-64
2022/10/14 07:07:15;;;;;;;215.20;41.35;;;;;;;;;;4956666;28;20085;-64
2022/10/14 07:09:41;;;;;;;242.20;37.75;;;;;;;;;;4955442;28;20074;-64
2022/10/14 07:12:07;;;;;;;227.43;34.55;;;;;;;;;;4955888;28;20053;-64
2022/10/14 07:14:33;;;;;;;194.05;34.10;;;;;;;;;;4981068;28;20073;-64
2022/10/14 07:17:00;;;;;;;214.27;33.75;;;;;;;;;;4989807;28;20050;-64
2022/10/14 07:19:26;;;;;;;172.60;32.92;;;;;;;;;;4988209;28;20042;-64
2022/10/14 07:21:52;;;;;;;168.73;32.60;;;;;;;;;;4993516;28;20034;-64
2022/10/14 07:24:18;;;;;;;156.75;32.30;;;;;;;;;;4988980;28;20043;-64
2022/10/14 07:26:44;;;;;;;161.43;33.80;;;;;;;;;;4984262;28;20743;-64
2022/10/14 07:29:10;;;;;;;133.00;34.05;;;;;;;;;;4984037;28;20077;-64
2022/10/14 07:31:37;;;;;;;135.38;33.72;;;;;;;;;;4986313;28;20043;-64
2022/10/14 07:34:03;;;;;;;143.15;33.78;;;;;;;;;;4984692;28;20046;-64
2022/10/14 07:36:29;;;;;;;127.95;34.72;;;;;;;;;;4986650;28;20050;-64
2022/10/14 07:38:55;;;;;;;162.50;34.35;;;;;;;;;;4985508;28;20054;-64
2022/10/14 07:41:23;;;;;;;180.30;36.40;;;;;;;;;;4984824;28;20045;-63
2022/10/14 07:43:51;;;;;;;141.82;34.90;;;;;;;;;;4982636;28;20073;-64
2022/10/14 07:46:27;;;;;;;153.27;33.65;;;;;;;;;;4965798;28;20074;-63
2022/10/14 07:48:53;;;;;;;141.30;33.70;;;;;;;;;;4981106;28;20050;-63
2022/10/14 07:51:19;;;;;;;114.10;33.70;;;;;;;;;;4979073;28;20046;-63
2022/10/14 07:53:47;;;;;;;120.03;34.10;;;;;;;;;;4967850;28;20070;-64
2022/10/14 07:56:13;;;;;;;114.72;33.30;;;;;;;;;;4984253;28;21196;-63
2022/10/14 07:58:39;;;;;;;89.32;29.85;;;;;;;;;;4984032;28;20371;-63
2022/10/14 08:01:06;;;;;;;100.30;31.58;;;;;;;;;;4982577;28;20109;-63
2022/10/14 08:03:32;;;;;;;90.30;29.77;;;;;;;;;;4984317;28;20043;-63
2022/10/14 08:05:59;;;;;;;91.60;31.08;;;;;;;;;;4967107;28;20084;-63
2022/10/14 08:08:27;;;;;;;87.53;29.02;;;;;;;;;;4983565;28;20520;-63
2022/10/14 08:11:00;;;;;;;90.47;30.50;;;;;;;;;;4972609;28;20522;-63
2022/10/14 08:13:26;;;;;;;87.90;28.85;;;;;;;;;;4982809;28;20478;-63
2022/10/14 08:15:52;;;;;;;71.35;27.77;;;;;;;;;;4985580;28;20391;-63
2022/10/14 08:18:18;;;;;;;67.32;27.52;;;;;;;;;;4988149;28;20428;-64
2022/10/14 08:20:44;;;;;;;66.55;27.70;;;;;;;;;;4989981;28;20354;-63
2022/10/14 08:23:12;;;;;;;63.47;26.23;;;;;;;;;;4989964;28;20121;-64
2022/10/14 08:25:39;;;;;;;67.07;26.75;;;;;;;;;;4987467;28;20056;-63
2022/10/14 08:28:05;;;;;;;60.08;26.40;;;;;;;;;;4985086;28;20126;-63
2022/10/14 08:30:31;;;;;;;57.47;27.17;;;;;;;;;;4982359;28;20038;-63
2022/10/14 08:32:58;;;;;;;65.80;27.05;;;;;;;;;;4976544;28;20069;-62
2022/10/14 08:35:25;;;;;;;63.15;27.23;;;;;;;;;;4982826;28;20038;-62
2022/10/14 08:37:57;;;;;;;68.43;26.90;;;;;;;;;;4983868;28;20053;-63
2022/10/14 08:40:23;;;;;;;60.15;26.40;;;;;;;;;;4986416;28;20133;-64
2022/10/14 08:42:55;;;;;;;63.47;27.10;;;;;;;;;;4990127;28;20130;-64
2022/10/14 08:45:30;;;;;;;61.20;25.60;;;;;;;;;;4988708;28;20368;-64
2022/10/14 08:47:56;;;;;;;77.35;27.83;;;;;;;;;;4991385;28;20039;-64
2022/10/14 08:50:28;;;;;;;71.43;28.83;;;;;;;;;;4991561;28;20068;-64
2022/10/14 08:53:04;;;;;;;57.22;25.52;;;;;;;;;;4986578;28;20482;-64
2022/10/14 08:55:38;;;;;;;63.97;27.60;;;;;;;;;;4990984;28;20057;-64
2022/10/14 08:58:08;;;;;;;63.50;26.80;;;;;;;;;;4989794;28;20042;-64
2022/10/14 09:00:35;;;;;;;73.60;29.08;;;;;;;;;;4990314;28;20045;-65
2022/10/14 09:03:04;;;;;;;74.35;28.88;;;;;;;;;;4989290;28;20038;-64
2022/10/14 09:05:30;;;;;;;69.47;28.23;;;;;;;;;;4990109;28;20467;-64
2022/10/14 09:07:57;;;;;;;62.20;26.92;;;;;;;;;;4990365;28;20129;-64
2022/10/14 09:10:28;;;;;;;73.97;28.95;;;;;;;;;;4989221;28;20062;-64
2022/10/14 09:12:56;;;;;;;66.28;28.77;;;;;;;;;;4971829;28;20494;-64
2022/10/14 09:15:27;;;;;;;58.88;26.95;;;;;;;;;;4990511;28;20038;-64
2022/10/14 09:18:07;;;;;;;69.40;28.13;;;;;;;;;;4990920;28;20110;-64
2022/10/14 09:20:33;;;;;;;69.00;29.10;;;;;;;;;;4986998;28;20402;-64
2022/10/14 09:23:14;;;;;;;60.50;27.75;;;;;;;;;;4989525;28;20125;-64
2022/10/14 09:25:41;;;;;;;65.45;27.77;;;;;;;;;;4986119;28;20042;-64
2022/10/14 09:28:08;;;;;;;65.13;28.60;;;;;;;;;;4987674;28;20077;-64
2022/10/14 09:30:36;;;;;;;68.95;28.35;;;;;;;;;;4988241;28;20057;-64
2022/10/14 09:33:04;;;;;;;69.55;28.90;;;;;;;;;;4988708;28;20050;-64
2022/10/14 09:35:34;;;;;;;63.80;28.70;;;;;;;;;;4988979;28;20042;-64
2022/10/14 09:38:01;;;;;;;70.78;31.30;;;;;;;;;;4981636;28;20043;-64
2022/10/14 09:40:31;;;;;;;80.55;31.70;;;;;;;;;;4987386;28;20046;-64
2022/10/14 09:43:07;;;;;;;73.82;29.85;;;;;;;;;;4987745;28;20089;-64
2022/10/14 09:45:48;;;;;;;74.90;30.75;;;;;;;;;;4987407;28;20053;-64
2022/10/14 09:48:15;;;;;;;78.95;33.22;;;;;;;;;;4985282;28;20498;-64
2022/10/14 09:50:42;;;;;;;76.55;32.38;;;;;;;;;;4986883;28;20068;-64
2022/10/14 09:53:25;;;;;;;83.32;32.22;;;;;;;;;;4990010;28;20046;-64
2022/10/14 09:55:54;;;;;;;74.50;31.38;;;;;;;;;;4988252;28;20050;-64
2022/10/14 09:58:28;;;;;;;85.22;35.13;;;;;;;;;;4987720;28;20053;-64
2022/10/14 10:00:56;;;;;;;72.50;31.85;;;;;;;;;;4985647;28;20775;-64
2022/10/14 10:03:26;;;;;;;72.40;29.73;;;;;;;;;;4966120;28;20096;-65
2022/10/14 10:06:00;;;;;;;72.20;31.42;;;;;;;;;;4988113;28;20076;-64
2022/10/14 10:08:26;;;;;;;69.90;30.33;;;;;;;;;;4988282;28;20038;-65
2022/10/14 10:10:57;;;;;;;70.32;30.40;;;;;;;;;;4984320;28;20116;-64
2022/10/14 10:13:31;;;;;;;70.03;28.25;;;;;;;;;;4988494;28;20053;-65
2022/10/14 10:15:57;;;;;;;;;;;;;;;;;;4987464;28;20042;-64
2022/10/14 10:18:23;;;;;;;79.00;30.20;;;;;;;;;;4987880;28;19922;-64
2022/10/14 10:21:05;;;;;;;68.15;29.20;;;;;;;;;;4970441;28;20086;-65
2022/10/14 10:23:33;;;;;;;71.57;29.52;;;;;;;;;;4986182;28;20070;-64
2022/10/14 10:26:20;;;;;;;66.55;28.33;;;;;;;;;;4987262;28;20072;-65
2022/10/14 10:28:47;;;;;;;65.10;27.88;;;;;;;;;;4988385;28;20085;-65
2022/10/14 10:31:27;;;;;;;66.82;28.08;;;;;;;;;;4986113;28;20046;-65
2022/10/14 10:34:02;;;;;;;74.75;29.45;;;;;;;;;;4987766;28;20398;-64
2022/10/14 10:36:32;;;;;;;67.80;27.63;;;;;;;;;;4966503;28;20057;-63
2022/10/14 10:39:16;;;;;;;79.35;28.50;;;;;;;;;;4973726;28;20441;-63
2022/10/14 10:41:49;;;;;;;67.32;26.13;;;;;;;;;;4964405;28;20068;-64
2022/10/14 10:44:31;;;;;;;55.67;24.03;;;;;;;;;;4982840;28;20050;-64
2022/10/14 10:47:04;;;;;;;52.58;23.23;;;;;;;;;;4981987;28;20046;-63
2022/10/14 10:49:42;;;;;;;54.93;23.13;;;;;;;;;;4984066;28;20038;-65
2022/10/14 10:52:29;;;;;;;51.80;22.33;;;;;;;;;;4966164;28;20150;-64
2022/10/14 10:55:04;;;;;;;59.83;23.40;;;;;;;;;;4951206;28;20501;-64
2022/10/14 10:57:34;;;;;;;59.30;24.52;;;;;;;;;;4965544;28;20160;-64
2022/10/14 11:00:04;;;;;;;56.70;23.60;;;;;;;;;;4981044;28;20038;-65
2022/10/14 11:02:44;;;;;;;46.03;20.23;;;;;;;;;;4982189;28;20146;-64
2022/10/14 11:05:14;;;;;;;52.20;22.10;;;;;;;;;;4984037;28;20070;-64
2022/10/14 11:13:46;;;;;;;38.65;18.05;;;;;;;;;;4959498;28;20049;-64
2022/10/14 11:16:15;;;;;;;38.35;17.02;;;;;;;;;;4952734;28;20169;-64
2022/10/14 11:18:46;;;;;;;41.88;18.73;;;;;;;;;;4967823;28;20050;-64
2022/10/14 11:21:20;;;;;;;41.08;17.42;;;;;;;;;;4969191;28;20093;-64
2022/10/14 11:23:58;;;;;;;36.95;17.50;;;;;;;;;;4952900;28;20054;-63
2022/10/14 11:26:26;;;;;;;35.08;16.65;;;;;;;;;;4949523;28;20042;-64
2022/10/14 11:28:58;;;;;;;36.55;16.77;;;;;;;;;;4930857;28;20143;-64
2022/10/14 11:31:31;;;;;;;33.70;14.80;;;;;;;;;;4961521;28;20046;-65
2022/10/14 11:34:03;;;;;;;32.65;14.48;;;;;;;;;;4963052;28;20181;-64
2022/10/14 11:36:37;;;;;;;38.53;16.17;;;;;;;;;;4946888;28;20045;-64
2022/10/14 11:39:15;;;;;;;34.08;14.80;;;;;;;;;;4964917;28;20116;-64
2022/10/14 11:41:53;;;;;;;28.58;14.98;;;;;;;;;;4942157;28;20150;-64
2022/10/14 11:44:32;;;;;;;26.95;13.55;;;;;;;;;;4962937;28;20038;-64
2022/10/14 11:47:03;;;;;;;27.15;13.70;;;;;;;;;;4963110;28;20050;-64
2022/10/14 11:49:32;;;;;;;22.60;11.45;;;;;;;;;;4944980;28;20439;-64
2022/10/14 11:51:59;;;;;;;20.70;10.38;;;;;;;;;;4946114;28;20058;-64
2022/10/14 11:54:30;;;;;;;20.30;10.38;;;;;;;;;;4943919;28;20142;-64
2022/10/14 11:57:01;;;;;;;22.65;11.32;;;;;;;;;;4964301;28;20043;-64
2022/10/14 11:59:36;;;;;;;23.90;11.73;;;;;;;;;;4964824;28;20602;-64
2022/10/14 12:02:11;;;;;;;22.00;11.57;;;;;;;;;;4963739;28;20098;-64
2022/10/14 12:04:40;;;;;;;21.58;11.25;;;;;;;;;;4946360;28;20062;-64
2022/10/14 12:07:11;;;;;;;23.40;11.48;;;;;;;;;;4948055;28;20051;-64
2022/10/14 12:09:40;;;;;;;25.35;11.75;;;;;;;;;;4964684;28;20038;-64
2022/10/14 12:12:09;;;;;;;23.50;10.95;;;;;;;;;;4984241;28;20057;-64
2022/10/14 12:14:39;;;;;;;22.80;10.57;;;;;;;;;;4987469;28;20074;-64
2022/10/14 12:17:07;;;;;;;21.95;11.20;;;;;;;;;;4986736;28;20050;-64
2022/10/14 12:19:33;;;;;;;23.13;11.43;;;;;;;;;;4986681;28;20468;-64
2022/10/14 12:22:06;;;;;;;24.60;12.38;;;;;;;;;;4985780;28;20038;-64
2022/10/14 12:24:35;;;;;;;25.38;11.73;;;;;;;;;;4984608;28;20477;-64
2022/10/14 12:27:03;;;;;;;25.50;11.02;;;;;;;;;;4987081;28;20468;-64
2022/10/14 12:29:37;;;;;;;24.90;11.45;;;;;;;;;;4980612;28;20050;-64
2022/10/14 12:32:03;;;;;;;29.13;11.85;;;;;;;;;;4984660;28;20057;-64
2022/10/14 12:34:33;;;;;;;23.90;12.15;;;;;;;;;;4982947;28;20140;-64
2022/10/14 12:37:00;;;;;;;26.33;12.15;;;;;;;;;;4981522;28;20113;-64
2022/10/14 12:39:33;;;;;;;28.85;12.00;;;;;;;;;;4980749;28;20038;-67
2022/10/14 12:42:01;;;;;;;23.77;11.27;;;;;;;;;;4986794;28;20532;-64
2022/10/14 12:44:34;;;;;;;25.00;11.65;;;;;;;;;;4984377;28;20046;-65
2022/10/14 12:47:02;;;;;;;24.63;12.80;;;;;;;;;;4984007;28;20100;-64
2022/10/14 12:49:29;;;;;;;26.85;12.52;;;;;;;;;;4986657;28;20061;-64
2022/10/14 12:51:56;;;;;;;31.58;13.80;;;;;;;;;;4986805;28;20057;-63
2022/10/14 12:54:24;;;;;;;26.95;13.30;;;;;;;;;;4987235;28;20069;-64
2022/10/14 12:56:56;;;;;;;32.22;13.75;;;;;;;;;;4988745;28;20184;-65
2022/10/14 12:59:26;;;;;;;27.13;14.85;;;;;;;;;;4987303;28;20410;-64
2022/10/14 13:01:54;;;;;;;29.50;15.98;;;;;;;;;;4985479;28;20456;-64
2022/10/14 13:04:20;;;;;;;27.48;16.55;;;;;;;;;;4987779;28;20050;-65
2022/10/14 13:07:06;;;;;;;31.90;17.83;;;;;;;;;;4987432;28;20050;-64
2022/10/14 13:09:33;;;;;;;34.95;19.35;;;;;;;;;;4987257;28;20098;-65
2022/10/14 13:12:00;;;;;;;31.58;18.00;;;;;;;;;;4967473;28;20039;-64
2022/10/14 13:14:28;;;;;;;30.70;17.10;;;;;;;;;;4968976;28;20046;-64
2022/10/14 13:16:57;;;;;;;36.10;18.30;;;;;;;;;;4967691;28;20070;-64
2022/10/14 13:19:32;;;;;;;33.20;17.75;;;;;;;;;;4966081;28;20126;-64
2022/10/14 13:21:59;;;;;;;26.98;16.05;;;;;;;;;;4965856;28;20514;-65
2022/10/14 13:24:29;;;;;;;20.60;13.57;;;;;;;;;;4949104;28;20047;-64
2022/10/14 13:27:05;;;;;;;23.92;13.13;;;;;;;;;;4947977;28;20461;-64
2022/10/14 13:29:31;;;;;;;26.77;13.68;;;;;;;;;;4966212;28;20394;-64
2022/10/14 13:31:57;;;;;;;20.92;12.45;;;;;;;;;;4947342;28;20340;-64
2022/10/14 13:34:46;;;;;;;24.05;11.55;;;;;;;;;;4948056;28;20529;-64
2022/10/14 13:37:27;;;;;;;23.48;11.85;;;;;;;;;;4966545;28;20093;-64
2022/10/14 13:39:54;;;;;;;25.13;13.15;;;;;;;;;;4965496;28;20043;-64
2022/10/14 13:42:23;;;;;;;31.67;14.60;;;;;;;;;;4966702;28;20462;-64
2022/10/14 13:44:49;;;;;;;30.52;14.85;;;;;;;;;;4966670;28;20050;-64
2022/10/14 13:47:17;;;;;;;25.63;14.32;;;;;;;;;;4947697;28;20137;-64
2022/10/14 13:49:45;;;;;;;23.08;13.82;;;;;;;;;;4967234;28;20087;-64
2022/10/14 13:52:15;;;;;;;27.50;15.07;;;;;;;;;;4967095;28;20047;-64
2022/10/14 13:54:41;;;;;;;26.08;14.77;;;;;;;;;;4965865;28;20398;-64
2022/10/14 13:57:09;;;;;;;27.38;16.27;;;;;;;;;;4949144;28;20054;-64
2022/10/14 13:59:36;;;;;;;26.98;14.82;;;;;;;;;;4949733;28;20042;-64
2022/10/14 14:02:03;;;;;;;28.52;14.77;;;;;;;;;;4965694;28;20435;-64
2022/10/14 14:04:32;;;;;;;25.23;14.02;;;;;;;;;;4966016;28;20379;-64
2022/10/14 14:06:58;;;;;;;24.08;12.98;;;;;;;;;;4966058;28;20402;-64
2022/10/14 14:09:27;;;;;;;21.17;12.85;;;;;;;;;;4965661;28;20526;-64
2022/10/14 14:11:54;;;;;;;29.35;13.20;;;;;;;;;;4943089;28;1139822;-64
2022/10/14 14:14:23;;;;;;;21.38;12.25;;;;;;;;;;4986539;28;20050;-64
2022/10/14 14:16:49;;;;;;;21.00;11.95;;;;;;;;;;4984404;28;20398;-64
2022/10/14 14:19:25;;;;;;;24.48;11.65;;;;;;;;;;4986576;28;20038;-64
2022/10/14 14:21:51;;;;;;;23.95;11.98;;;;;;;;;;4981786;28;20053;-64
2022/10/14 14:24:20;;;;;;;24.42;12.75;;;;;;;;;;4986134;28;20145;-64
2022/10/14 14:26:46;;;;;;;21.90;11.45;;;;;;;;;;4985019;28;20054;-64